sensor_id;sensor_type;location;lat;lon;timestamp;temperature;humidity
11894;DHT22;6006;49.696;8.662;2023-01-28T00:00:19;2.90;99.90
11894;DHT22;6006;49.696;8.662;2023-01-28T00:02:46;2.90;99.90
11894;DHT22;6006;49.696;8.662;2023-01-28T00:05:14;2.80;99.90
11894;DHT22;6006;49.696;8.662;2023-01-28T00:07:41;2.80;99.90
11894;DHT22;6006;49.696;8.662;2023-01-28T00:10:09;2.80;99.90
11894;DHT22;6006;49.696;8.662;2023-01-28T00:12:36;2.90;99.90
11894;DHT22;6006;49.696;8.662;2023-01-28T00:15:05;2.90;99.90
11894;DHT22;6006;49.696;8.662;2023-01-28T00:17:32;2.90;99.90
11894;DHT22;6006;49.696;8.662;2023-01-28T00:20:01;2.90;99.90
11894;DHT22;6006;49.696;8.662;2023-01-28T00:22:28;2.80;99.90
11894;DHT22;6006;49.696;8.662;2023-01-28T00:24:55;2.90;99.90
11894;DHT22;6006;49.696;8.662;2023-01-28T00:27:21;2.90;99.90
11894;DHT22;6006;49.696;8.662;2023-01-28T00:29:48;2.90;99.90
11894;DHT22;6006;49.696;8.662;2023-01-28T00:32:17;2.90;99.90
11894;DHT22;6006;49.696;8.662;2023-01-28T00:34:43;2.90;99.90
11894;DHT22;6006;49.696;8.662;2023-01-28T00:37:10;2.80;99.90
11894;DHT22;6006;49.696;8.662;2023-01-28T00:39:37;2.80;99.90
11894;DHT22;6006;49.696;8.662;2023-01-28T00:42:04;2.80;99.90
11894;DHT22;6006;49.696;8.662;2023-01-28T00:44:31;2.80;99.90
11894;DHT22;6006;49.696;8.662;2023-01-28T00:46:58;2.80;99.90
11894;DHT22;6006;49.696;8.662;2023-01-28T00:49:26;2.80;99.90
11894;DHT22;6006;49.696;8.662;2023-01-28T00:51:53;2.80;99.90
11894;DHT22;6006;49.696;8.662;2023-01-28T00:54:20;2.80;99.90
11894;DHT22;6006;49.696;8.662;2023-01-28T00:56:47;2.80;99.90
11894;DHT22;6006;49.696;8.662;2023-01-28T00:59:14;2.80;99.90
11894;DHT22;6006;49.696;8.662;2023-01-28T01:01:41;2.80;99.90
11894;DHT22;6006;49.696;8.662;2023-01-28T01:04:08;2.80;99.90
11894;DHT22;6006;49.696;8.662;2023-01-28T01:06:38;2.80;99.90
11894;DHT22;6006;49.696;8.662;2023-01-28T01:09:07;2.80;99.90
11894;DHT22;6006;49.696;8.662;2023-01-28T01:11:36;2.80;99.90
11894;DHT22;6006;49.696;8.662;2023-01-28T01:14:03;2.80;99.90
11894;DHT22;6006;49.696;8.662;2023-01-28T01:16:32;2.80;99.90
11894;DHT22;6006;49.696;8.662;2023-01-28T01:19:00;2.80;99.90
11894;DHT22;6006;49.696;8.662;2023-01-28T01:21:29;2.80;99.90
11894;DHT22;6006;49.696;8.662;2023-01-28T01:23:57;2.80;99.90
11894;DHT22;6006;49.696;8.662;2023-01-28T01:26:24;2.80;99.90
11894;DHT22;6006;49.696;8.662;2023-01-28T01:28:52;2.80;99.90
11894;DHT22;6006;49.696;8.662;2023-01-28T01:31:20;2.80;99.90
11894;DHT22;6006;49.696;8.662;2023-01-28T01:33:49;2.90;99.90
11894;DHT22;6006;49.696;8.662;2023-01-28T01:36:17;2.80;99.90
11894;DHT22;6006;49.696;8.662;2023-01-28T01:38:46;2.90;99.90
11894;DHT22;6006;49.696;8.662;2023-01-28T01:41:24;2.90;99.90
11894;DHT22;6006;49.696;8.662;2023-01-28T01:43:52;2.90;99.90
11894;DHT22;6006;49.696;8.662;2023-01-28T01:46:23;2.80;99.90
11894;DHT22;6006;49.696;8.662;2023-01-28T01:48:52;2.80;99.90
11894;DHT22;6006;49.696;8.662;2023-01-28T01:51:23;2.90;99.90
11894;DHT22;6006;49.696;8.662;2023-01-28T01:53:55;2.90;99.90
11894;DHT22;6006;49.696;8.662;2023-01-28T01:56:29;2.90;99.90
11894;DHT22;6006;49.696;8.662;2023-01-28T01:58:57;2.80;99.90
11894;DHT22;6006;49.696;8.662;2023-01-28T02:01:27;2.80;99.90
11894;DHT22;6006;49.696;8.662;2023-01-28T02:04:00;2.80;99.90
11894;DHT22;6006;49.696;8.662;2023-01-28T02:06:30;2.80;99.90
11894;DHT22;6006;49.696;8.662;2023-01-28T02:08:57;2.80;99.90
11894;DHT22;6006;49.696;8.662;2023-01-28T02:11:29;2.80;99.90
11894;DHT22;6006;49.696;8.662;2023-01-28T02:14:01;2.80;99.90
11894;DHT22;6006;49.696;8.662;2023-01-28T02:16:30;2.70;99.90
11894;DHT22;6006;49.696;8.662;2023-01-28T02:18:57;2.70;99.90
11894;DHT22;6006;49.696;8.662;2023-01-28T02:21:41;2.60;99.90
11894;DHT22;6006;49.696;8.662;2023-01-28T02:24:43;2.60;99.90
11894;DHT22;6006;49.696;8.662;2023-01-28T02:27:26;2.50;99.90
11894;DHT22;6006;49.696;8.662;2023-01-28T02:29:59;2.50;99.90
11894;DHT22;6006;49.696;8.662;2023-01-28T02:32:32;2.50;99.90
11894;DHT22;6006;49.696;8.662;2023-01-28T02:35:06;2.40;99.90
11894;DHT22;6006;49.696;8.662;2023-01-28T02:37:41;2.40;99.90
11894;DHT22;6006;49.696;8.662;2023-01-28T02:40:13;2.40;99.90
11894;DHT22;6006;49.696;8.662;2023-01-28T02:42:40;2.40;99.90
11894;DHT22;6006;49.696;8.662;2023-01-28T02:45:24;2.30;99.90
11894;DHT22;6006;49.696;8.662;2023-01-28T02:48:11;2.30;99.90
11894;DHT22;6006;49.696;8.662;2023-01-28T02:50:45;2.20;99.90
11894;DHT22;6006;49.696;8.662;2023-01-28T02:53:21;2.20;99.90
11894;DHT22;6006;49.696;8.662;2023-01-28T02:56:16;2.20;99.90
11894;DHT22;6006;49.696;8.662;2023-01-28T02:58:51;2.20;99.90
11894;DHT22;6006;49.696;8.662;2023-01-28T03:01:27;2.20;99.90
11894;DHT22;6006;49.696;8.662;2023-01-28T03:03:59;2.20;99.90
11894;DHT22;6006;49.696;8.662;2023-01-28T03:06:30;2.20;99.90
11894;DHT22;6006;49.696;8.662;2023-01-28T03:09:02;2.20;99.90
11894;DHT22;6006;49.696;8.662;2023-01-28T03:11:51;2.20;99.90
11894;DHT22;6006;49.696;8.662;2023-01-28T03:14:38;2.20;99.90
11894;DHT22;6006;49.696;8.662;2023-01-28T03:17:27;2.20;99.90
11894;DHT22;6006;49.696;8.662;2023-01-28T03:20:15;2.10;99.90
11894;DHT22;6006;49.696;8.662;2023-01-28T03:23:03;2.20;99.90
11894;DHT22;6006;49.696;8.662;2023-01-28T03:25:53;2.20;99.90
11894;DHT22;6006;49.696;8.662;2023-01-28T03:28:41;2.20;99.90
11894;DHT22;6006;49.696;8.662;2023-01-28T03:31:26;2.20;99.90
11894;DHT22;6006;49.696;8.662;2023-01-28T03:34:12;2.20;99.90
11894;DHT22;6006;49.696;8.662;2023-01-28T03:36:58;2.10;99.90
11894;DHT22;6006;49.696;8.662;2023-01-28T03:39:27;2.20;99.90
11894;DHT22;6006;49.696;8.662;2023-01-28T03:41:58;2.20;99.90
11894;DHT22;6006;49.696;8.662;2023-01-28T03:44:26;2.20;99.90
11894;DHT22;6006;49.696;8.662;2023-01-28T03:47:11;2.20;99.90
11894;DHT22;6006;49.696;8.662;2023-01-28T03:49:40;2.20;99.90
11894;DHT22;6006;49.696;8.662;2023-01-28T03:52:10;2.20;99.90
11894;DHT22;6006;49.696;8.662;2023-01-28T03:54:37;2.20;99.90
11894;DHT22;6006;49.696;8.662;2023-01-28T03:57:04;2.20;99.90
11894;DHT22;6006;49.696;8.662;2023-01-28T03:59:31;2.20;99.90
11894;DHT22;6006;49.696;8.662;2023-01-28T04:01:58;2.20;99.90
11894;DHT22;6006;49.696;8.662;2023-01-28T04:04:27;2.20;99.90
11894;DHT22;6006;49.696;8.662;2023-01-28T04:06:56;2.20;99.90
11894;DHT22;6006;49.696;8.662;2023-01-28T04:09:23;2.20;99.90
11894;DHT22;6006;49.696;8.662;2023-01-28T04:11:50;2.20;99.90
11894;DHT22;6006;49.696;8.662;2023-01-28T04:14:18;2.20;99.90
11894;DHT22;6006;49.696;8.662;2023-01-28T04:16:45;2.20;99.90
11894;DHT22;6006;49.696;8.662;2023-01-28T04:19:12;2.20;99.90
11894;DHT22;6006;49.696;8.662;2023-01-28T04:21:40;2.20;99.90
11894;DHT22;6006;49.696;8.662;2023-01-28T04:24:09;2.20;99.90
11894;DHT22;6006;49.696;8.662;2023-01-28T04:26:35;2.20;99.90
11894;DHT22;6006;49.696;8.662;2023-01-28T04:29:02;2.20;99.90
11894;DHT22;6006;49.696;8.662;2023-01-28T04:31:30;2.20;99.90
11894;DHT22;6006;49.696;8.662;2023-01-28T04:33:57;2.20;99.90
11894;DHT22;6006;49.696;8.662;2023-01-28T04:36:24;2.20;99.90
11894;DHT22;6006;49.696;8.662;2023-01-28T04:38:51;2.20;99.90
11894;DHT22;6006;49.696;8.662;2023-01-28T04:41:20;2.20;99.90
11894;DHT22;6006;49.696;8.662;2023-01-28T04:43:46;2.20;99.90
11894;DHT22;6006;49.696;8.662;2023-01-28T04:46:14;2.20;99.90
11894;DHT22;6006;49.696;8.662;2023-01-28T04:48:41;2.20;99.90
11894;DHT22;6006;49.696;8.662;2023-01-28T04:51:08;2.20;99.90
11894;DHT22;6006;49.696;8.662;2023-01-28T04:53:35;2.20;99.90
11894;DHT22;6006;49.696;8.662;2023-01-28T04:56:02;2.20;99.90
11894;DHT22;6006;49.696;8.662;2023-01-28T04:58:30;2.20;99.90
11894;DHT22;6006;49.696;8.662;2023-01-28T05:00:58;2.20;99.90
11894;DHT22;6006;49.696;8.662;2023-01-28T05:03:25;2.20;99.90
11894;DHT22;6006;49.696;8.662;2023-01-28T05:05:52;2.20;99.90
11894;DHT22;6006;49.696;8.662;2023-01-28T05:08:19;2.20;99.90
11894;DHT22;6006;49.696;8.662;2023-01-28T05:10:46;2.30;99.90
11894;DHT22;6006;49.696;8.662;2023-01-28T05:13:13;2.30;99.90
11894;DHT22;6006;49.696;8.662;2023-01-28T05:15:41;2.30;99.90
11894;DHT22;6006;49.696;8.662;2023-01-28T05:18:08;2.30;99.90
11894;DHT22;6006;49.696;8.662;2023-01-28T05:20:35;2.30;99.90
11894;DHT22;6006;49.696;8.662;2023-01-28T05:23:02;2.20;99.90
11894;DHT22;6006;49.696;8.662;2023-01-28T05:25:29;2.20;99.90
11894;DHT22;6006;49.696;8.662;2023-01-28T05:27:55;2.20;99.90
11894;DHT22;6006;49.696;8.662;2023-01-28T05:30:22;2.20;99.90
11894;DHT22;6006;49.696;8.662;2023-01-28T05:32:54;2.30;99.90
11894;DHT22;6006;49.696;8.662;2023-01-28T05:35:21;2.30;99.90
11894;DHT22;6006;49.696;8.662;2023-01-28T05:37:48;2.30;99.90
11894;DHT22;6006;49.696;8.662;2023-01-28T05:40:15;2.20;99.90
11894;DHT22;6006;49.696;8.662;2023-01-28T05:42:43;2.20;99.90
11894;DHT22;6006;49.696;8.662;2023-01-28T05:45:10;2.20;99.90
11894;DHT22;6006;49.696;8.662;2023-01-28T05:47:37;2.20;99.90
11894;DHT22;6006;49.696;8.662;2023-01-28T05:50:07;2.20;99.90
11894;DHT22;6006;49.696;8.662;2023-01-28T05:52:34;2.20;99.90
11894;DHT22;6006;49.696;8.662;2023-01-28T05:55:01;2.20;99.90
11894;DHT22;6006;49.696;8.662;2023-01-28T05:57:28;2.20;99.90
11894;DHT22;6006;49.696;8.662;2023-01-28T05:59:55;2.20;99.90
11894;DHT22;6006;49.696;8.662;2023-01-28T06:02:22;2.20;99.90
11894;DHT22;6006;49.696;8.662;2023-01-28T06:04:49;2.20;99.90
11894;DHT22;6006;49.696;8.662;2023-01-28T06:07:17;2.20;99.90
11894;DHT22;6006;49.696;8.662;2023-01-28T06:09:45;2.20;99.90
11894;DHT22;6006;49.696;8.662;2023-01-28T06:12:12;2.20;99.90
11894;DHT22;6006;49.696;8.662;2023-01-28T06:14:39;2.20;99.90
11894;DHT22;6006;49.696;8.662;2023-01-28T06:17:06;2.20;99.90
11894;DHT22;6006;49.696;8.662;2023-01-28T06:19:33;2.10;99.90
11894;DHT22;6006;49.696;8.662;2023-01-28T06:21:59;2.10;99.90
11894;DHT22;6006;49.696;8.662;2023-01-28T06:24:28;2.20;99.90
11894;DHT22;6006;49.696;8.662;2023-01-28T06:26:54;2.20;99.90
11894;DHT22;6006;49.696;8.662;2023-01-28T06:29:22;2.10;99.90
11894;DHT22;6006;49.696;8.662;2023-01-28T06:31:48;2.10;99.90
11894;DHT22;6006;49.696;8.662;2023-01-28T06:34:15;2.10;99.90
11894;DHT22;6006;49.696;8.662;2023-01-28T06:36:42;2.10;99.90
11894;DHT22;6006;49.696;8.662;2023-01-28T06:39:09;2.10;99.90
11894;DHT22;6006;49.696;8.662;2023-01-28T06:41:38;2.10;99.90
11894;DHT22;6006;49.696;8.662;2023-01-28T06:44:06;2.10;99.90
11894;DHT22;6006;49.696;8.662;2023-01-28T06:46:32;2.10;99.90
11894;DHT22;6006;49.696;8.662;2023-01-28T06:49:00;2.10;99.90
11894;DHT22;6006;49.696;8.662;2023-01-28T06:51:26;2.10;99.90
11894;DHT22;6006;49.696;8.662;2023-01-28T06:53:53;2.10;99.90
11894;DHT22;6006;49.696;8.662;2023-01-28T06:56:20;2.10;99.90
11894;DHT22;6006;49.696;8.662;2023-01-28T06:58:49;2.10;99.90
11894;DHT22;6006;49.696;8.662;2023-01-28T07:01:15;2.10;99.90
11894;DHT22;6006;49.696;8.662;2023-01-28T07:03:42;2.10;99.90
11894;DHT22;6006;49.696;8.662;2023-01-28T07:06:09;2.10;99.90
11894;DHT22;6006;49.696;8.662;2023-01-28T07:08:36;2.10;99.90
11894;DHT22;6006;49.696;8.662;2023-01-28T07:11:04;2.10;99.90
11894;DHT22;6006;49.696;8.662;2023-01-28T07:13:31;2.10;99.90
11894;DHT22;6006;49.696;8.662;2023-01-28T07:15:59;2.00;99.90
11894;DHT22;6006;49.696;8.662;2023-01-28T07:18:26;2.00;99.90
11894;DHT22;6006;49.696;8.662;2023-01-28T07:20:53;2.00;99.90
11894;DHT22;6006;49.696;8.662;2023-01-28T07:23:21;2.10;99.90
11894;DHT22;6006;49.696;8.662;2023-01-28T07:25:48;2.10;99.90
11894;DHT22;6006;49.696;8.662;2023-01-28T07:28:15;2.10;99.90
11894;DHT22;6006;49.696;8.662;2023-01-28T07:30:46;2.10;99.90
11894;DHT22;6006;49.696;8.662;2023-01-28T07:33:15;2.20;99.90
11894;DHT22;6006;49.696;8.662;2023-01-28T07:35:42;2.10;99.90
11894;DHT22;6006;49.696;8.662;2023-01-28T07:38:09;2.10;99.90
11894;DHT22;6006;49.696;8.662;2023-01-28T07:40:36;2.10;99.90
11894;DHT22;6006;49.696;8.662;2023-01-28T07:43:03;2.10;99.90
11894;DHT22;6006;49.696;8.662;2023-01-28T07:45:31;2.10;99.90
11894;DHT22;6006;49.696;8.662;2023-01-28T07:47:59;2.10;99.90
11894;DHT22;6006;49.696;8.662;2023-01-28T07:50:29;2.20;99.90
11894;DHT22;6006;49.696;8.662;2023-01-28T07:52:57;2.20;99.90
11894;DHT22;6006;49.696;8.662;2023-01-28T07:55:24;2.20;99.90
11894;DHT22;6006;49.696;8.662;2023-01-28T07:57:52;2.20;99.90
11894;DHT22;6006;49.696;8.662;2023-01-28T08:00:20;2.20;98.70
11894;DHT22;6006;49.696;8.662;2023-01-28T08:02:48;2.20;93.10
11894;DHT22;6006;49.696;8.662;2023-01-28T08:05:16;2.20;99.90
11894;DHT22;6006;49.696;8.662;2023-01-28T08:07:45;2.30;74.40
11894;DHT22;6006;49.696;8.662;2023-01-28T08:10:13;2.30;70.40
11894;DHT22;6006;49.696;8.662;2023-01-28T08:12:40;2.30;97.70
11894;DHT22;6006;49.696;8.662;2023-01-28T08:15:08;2.30;69.90
11894;DHT22;6006;49.696;8.662;2023-01-28T08:17:35;2.30;67.80
11894;DHT22;6006;49.696;8.662;2023-01-28T08:20:02;2.30;49.20
11894;DHT22;6006;49.696;8.662;2023-01-28T08:22:29;2.30;36.30
11894;DHT22;6006;49.696;8.662;2023-01-28T08:24:57;2.40;22.80
11894;DHT22;6006;49.696;8.662;2023-01-28T08:27:24;2.40;26.40
11894;DHT22;6006;49.696;8.662;2023-01-28T08:29:51;2.40;33.10
11894;DHT22;6006;49.696;8.662;2023-01-28T08:32:18;2.40;9.50
11894;DHT22;6006;49.696;8.662;2023-01-28T08:34:45;2.40;1.00
11894;DHT22;6006;49.696;8.662;2023-01-28T08:37:12;2.40;19.90
11894;DHT22;6006;49.696;8.662;2023-01-28T08:39:38;2.40;1.00
11894;DHT22;6006;49.696;8.662;2023-01-28T08:42:07;2.40;1.00
11894;DHT22;6006;49.696;8.662;2023-01-28T08:44:34;2.50;1.00
11894;DHT22;6006;49.696;8.662;2023-01-28T08:47:01;2.50;15.40
11894;DHT22;6006;49.696;8.662;2023-01-28T08:49:28;2.50;1.00
11894;DHT22;6006;49.696;8.662;2023-01-28T08:51:55;2.50;1.00
11894;DHT22;6006;49.696;8.662;2023-01-28T08:54:22;2.50;1.00
11894;DHT22;6006;49.696;8.662;2023-01-28T08:56:49;2.60;1.00
11894;DHT22;6006;49.696;8.662;2023-01-28T08:59:17;2.60;1.00
11894;DHT22;6006;49.696;8.662;2023-01-28T09:01:44;2.60;1.00
11894;DHT22;6006;49.696;8.662;2023-01-28T09:04:11;2.60;1.00
11894;DHT22;6006;49.696;8.662;2023-01-28T09:06:38;2.60;1.00
11894;DHT22;6006;49.696;8.662;2023-01-28T09:09:05;2.60;1.00
11894;DHT22;6006;49.696;8.662;2023-01-28T09:11:32;2.60;1.00
11894;DHT22;6006;49.696;8.662;2023-01-28T09:13:59;2.70;1.00
11894;DHT22;6006;49.696;8.662;2023-01-28T09:16:27;2.70;1.00
11894;DHT22;6006;49.696;8.662;2023-01-28T09:18:54;2.70;1.00
11894;DHT22;6006;49.696;8.662;2023-01-28T09:21:21;2.80;1.00
11894;DHT22;6006;49.696;8.662;2023-01-28T09:23:48;2.80;1.00
11894;DHT22;6006;49.696;8.662;2023-01-28T09:26:15;2.80;1.00
11894;DHT22;6006;49.696;8.662;2023-01-28T09:28:42;2.90;1.00
11894;DHT22;6006;49.696;8.662;2023-01-28T09:31:10;2.90;1.00
11894;DHT22;6006;49.696;8.662;2023-01-28T09:33:39;3.00;1.00
11894;DHT22;6006;49.696;8.662;2023-01-28T09:36:09;3.00;1.00
11894;DHT22;6006;49.696;8.662;2023-01-28T09:38:36;3.00;1.00
11894;DHT22;6006;49.696;8.662;2023-01-28T09:41:14;2.90;1.00
11894;DHT22;6006;49.696;8.662;2023-01-28T09:44:02;3.00;1.00
11894;DHT22;6006;49.696;8.662;2023-01-28T09:46:32;3.00;1.00
11894;DHT22;6006;49.696;8.662;2023-01-28T09:49:03;3.10;99.90
11894;DHT22;6006;49.696;8.662;2023-01-28T09:51:34;2.90;99.90
11894;DHT22;6006;49.696;8.662;2023-01-28T09:54:05;3.10;1.00
11894;DHT22;6006;49.696;8.662;2023-01-28T09:56:35;3.10;99.90
11894;DHT22;6006;49.696;8.662;2023-01-28T09:59:14;3.10;1.00
11894;DHT22;6006;49.696;8.662;2023-01-28T10:01:46;3.20;1.00
11894;DHT22;6006;49.696;8.662;2023-01-28T10:04:37;3.00;99.90
11894;DHT22;6006;49.696;8.662;2023-01-28T10:07:20;3.10;1.00
11894;DHT22;6006;49.696;8.662;2023-01-28T10:09:55;3.10;99.90
11894;DHT22;6006;49.696;8.662;2023-01-28T10:12:39;3.20;99.90
11894;DHT22;6006;49.696;8.662;2023-01-28T10:18:31;3.10;99.90
11894;DHT22;6006;49.696;8.662;2023-01-28T10:21:06;3.20;99.90
11894;DHT22;6006;49.696;8.662;2023-01-28T10:23:43;3.20;99.90
11894;DHT22;6006;49.696;8.662;2023-01-28T10:26:20;3.30;99.90
11894;DHT22;6006;49.696;8.662;2023-01-28T10:28:52;3.20;99.90
11894;DHT22;6006;49.696;8.662;2023-01-28T10:31:21;3.20;99.90
11894;DHT22;6006;49.696;8.662;2023-01-28T10:33:48;3.10;99.90
11894;DHT22;6006;49.696;8.662;2023-01-28T10:36:16;3.20;99.90
11894;DHT22;6006;49.696;8.662;2023-01-28T10:38:43;3.20;99.90
11894;DHT22;6006;49.696;8.662;2023-01-28T10:41:21;3.20;99.90
11894;DHT22;6006;49.696;8.662;2023-01-28T10:43:50;3.20;99.90
11894;DHT22;6006;49.696;8.662;2023-01-28T10:46:20;3.30;99.90
11894;DHT22;6006;49.696;8.662;2023-01-28T10:48:54;3.30;71.50
11894;DHT22;6006;49.696;8.662;2023-01-28T10:51:31;3.30;1.00
11894;DHT22;6006;49.696;8.662;2023-01-28T10:53:59;3.30;1.00
11894;DHT22;6006;49.696;8.662;2023-01-28T10:56:28;3.40;1.00
11894;DHT22;6006;49.696;8.662;2023-01-28T10:59:01;3.50;1.00
11894;DHT22;6006;49.696;8.662;2023-01-28T11:01:40;3.50;99.90
11894;DHT22;6006;49.696;8.662;2023-01-28T11:04:16;3.60;99.90
11894;DHT22;6006;49.696;8.662;2023-01-28T11:06:51;3.60;99.90
11894;DHT22;6006;49.696;8.662;2023-01-28T11:09:23;3.60;99.90
11894;DHT22;6006;49.696;8.662;2023-01-28T11:11:50;3.60;52.50
11894;DHT22;6006;49.696;8.662;2023-01-28T11:14:25;3.50;99.90
11894;DHT22;6006;49.696;8.662;2023-01-28T11:16:54;3.40;99.90
11894;DHT22;6006;49.696;8.662;2023-01-28T11:19:27;3.50;1.00
11894;DHT22;6006;49.696;8.662;2023-01-28T11:21:56;3.40;1.00
11894;DHT22;6006;49.696;8.662;2023-01-28T11:24:27;3.50;1.00
11894;DHT22;6006;49.696;8.662;2023-01-28T11:26:57;3.50;1.00
11894;DHT22;6006;49.696;8.662;2023-01-28T11:29:27;3.60;99.90
11894;DHT22;6006;49.696;8.662;2023-01-28T11:31:56;3.70;99.90
11894;DHT22;6006;49.696;8.662;2023-01-28T11:34:26;3.60;99.90
11894;DHT22;6006;49.696;8.662;2023-01-28T11:37:00;3.60;99.90
11894;DHT22;6006;49.696;8.662;2023-01-28T11:39:28;3.70;1.00
11894;DHT22;6006;49.696;8.662;2023-01-28T11:42:02;3.70;99.90
11894;DHT22;6006;49.696;8.662;2023-01-28T11:44:35;3.70;1.00
11894;DHT22;6006;49.696;8.662;2023-01-28T11:47:21;3.70;99.90
11894;DHT22;6006;49.696;8.662;2023-01-28T11:50:05;3.70;1.00
11894;DHT22;6006;49.696;8.662;2023-01-28T11:52:47;3.60;1.00
11894;DHT22;6006;49.696;8.662;2023-01-28T11:55:26;3.50;1.00
11894;DHT22;6006;49.696;8.662;2023-01-28T11:58:05;3.50;99.90
11894;DHT22;6006;49.696;8.662;2023-01-28T12:00:44;3.60;99.90
11894;DHT22;6006;49.696;8.662;2023-01-28T12:03:27;3.60;99.90
11894;DHT22;6006;49.696;8.662;2023-01-28T12:06:18;3.60;1.00
11894;DHT22;6006;49.696;8.662;2023-01-28T12:08:55;3.50;1.00
11894;DHT22;6006;49.696;8.662;2023-01-28T12:11:31;3.50;99.90
11894;DHT22;6006;49.696;8.662;2023-01-28T12:14:26;3.30;97.60
11894;DHT22;6006;49.696;8.662;2023-01-28T12:17:08;3.20;1.00
11894;DHT22;6006;49.696;8.662;2023-01-28T12:19:51;3.10;39.20
11894;DHT22;6006;49.696;8.662;2023-01-28T12:25:41;3.30;99.90
11894;DHT22;6006;49.696;8.662;2023-01-28T12:28:19;3.30;1.00
11894;DHT22;6006;49.696;8.662;2023-01-28T12:31:06;3.10;1.00
11894;DHT22;6006;49.696;8.662;2023-01-28T12:34:00;3.10;1.00
11894;DHT22;6006;49.696;8.662;2023-01-28T12:36:44;3.20;99.90
11894;DHT22;6006;49.696;8.662;2023-01-28T12:39:22;3.10;99.90
11894;DHT22;6006;49.696;8.662;2023-01-28T12:42:07;3.00;1.00
11894;DHT22;6006;49.696;8.662;2023-01-28T12:44:40;2.90;1.00
11894;DHT22;6006;49.696;8.662;2023-01-28T12:47:12;2.90;1.00
11894;DHT22;6006;49.696;8.662;2023-01-28T12:49:45;2.90;87.80
11894;DHT22;6006;49.696;8.662;2023-01-28T12:52:17;2.90;99.90
11894;DHT22;6006;49.696;8.662;2023-01-28T12:54:54;3.00;99.90
11894;DHT22;6006;49.696;8.662;2023-01-28T12:57:27;2.90;1.00
11894;DHT22;6006;49.696;8.662;2023-01-28T13:00:00;2.80;99.90
11894;DHT22;6006;49.696;8.662;2023-01-28T13:02:32;2.80;1.00
11894;DHT22;6006;49.696;8.662;2023-01-28T13:05:05;2.80;99.90
11894;DHT22;6006;49.696;8.662;2023-01-28T13:07:38;2.80;1.00
11894;DHT22;6006;49.696;8.662;2023-01-28T13:10:15;2.90;1.00
11894;DHT22;6006;49.696;8.662;2023-01-28T13:12:45;3.00;1.00
11894;DHT22;6006;49.696;8.662;2023-01-28T13:15:15;3.00;99.90
11894;DHT22;6006;49.696;8.662;2023-01-28T13:17:53;3.00;1.00
11894;DHT22;6006;49.696;8.662;2023-01-28T13:20:30;2.90;99.90
11894;DHT22;6006;49.696;8.662;2023-01-28T13:23:02;2.80;99.90
11894;DHT22;6006;49.696;8.662;2023-01-28T13:25:32;2.80;99.90
11894;DHT22;6006;49.696;8.662;2023-01-28T13:28:02;2.70;99.90
11894;DHT22;6006;49.696;8.662;2023-01-28T13:30:31;2.60;99.90
11894;DHT22;6006;49.696;8.662;2023-01-28T13:33:00;2.60;1.00
11894;DHT22;6006;49.696;8.662;2023-01-28T13:35:33;2.60;99.90
11894;DHT22;6006;49.696;8.662;2023-01-28T13:38:06;2.60;1.00
11894;DHT22;6006;49.696;8.662;2023-01-28T13:40:34;2.60;1.00
11894;DHT22;6006;49.696;8.662;2023-01-28T13:43:04;2.50;99.90
11894;DHT22;6006;49.696;8.662;2023-01-28T13:45:32;2.50;99.90
11894;DHT22;6006;49.696;8.662;2023-01-28T13:48:05;2.50;99.90
11894;DHT22;6006;49.696;8.662;2023-01-28T13:50:41;2.50;1.00
11894;DHT22;6006;49.696;8.662;2023-01-28T13:53:20;2.50;99.90
11894;DHT22;6006;49.696;8.662;2023-01-28T13:55:51;2.60;1.00
11894;DHT22;6006;49.696;8.662;2023-01-28T13:58:40;2.50;99.90
11894;DHT22;6006;49.696;8.662;2023-01-28T14:01:30;2.40;99.90
11894;DHT22;6006;49.696;8.662;2023-01-28T14:04:33;2.30;99.90
11894;DHT22;6006;49.696;8.662;2023-01-28T14:10:27;2.30;99.90
11894;DHT22;6006;49.696;8.662;2023-01-28T14:13:20;2.30;99.90
11894;DHT22;6006;49.696;8.662;2023-01-28T14:15:57;2.20;1.00
11894;DHT22;6006;49.696;8.662;2023-01-28T14:18:32;2.20;99.90
11894;DHT22;6006;49.696;8.662;2023-01-28T14:21:03;2.20;99.90
11894;DHT22;6006;49.696;8.662;2023-01-28T14:23:35;2.20;99.90
11894;DHT22;6006;49.696;8.662;2023-01-28T14:26:11;2.20;1.00
11894;DHT22;6006;49.696;8.662;2023-01-28T14:28:49;2.10;99.90
11894;DHT22;6006;49.696;8.662;2023-01-28T14:31:25;2.20;99.90
11894;DHT22;6006;49.696;8.662;2023-01-28T14:33:53;2.20;1.00
11894;DHT22;6006;49.696;8.662;2023-01-28T14:36:20;2.20;91.00
11894;DHT22;6006;49.696;8.662;2023-01-28T14:38:47;2.10;87.40
11894;DHT22;6006;49.696;8.662;2023-01-28T14:41:22;2.10;1.00
11894;DHT22;6006;49.696;8.662;2023-01-28T14:43:51;2.10;1.00
11894;DHT22;6006;49.696;8.662;2023-01-28T14:46:29;2.10;1.00
11894;DHT22;6006;49.696;8.662;2023-01-28T14:49:09;2.00;1.00
11894;DHT22;6006;49.696;8.662;2023-01-28T14:51:50;2.10;1.00
11894;DHT22;6006;49.696;8.662;2023-01-28T14:54:36;2.10;99.90
11894;DHT22;6006;49.696;8.662;2023-01-28T14:57:20;2.00;1.00
11894;DHT22;6006;49.696;8.662;2023-01-28T14:59:50;2.00;99.90
11894;DHT22;6006;49.696;8.662;2023-01-28T15:02:21;2.00;93.50
11894;DHT22;6006;49.696;8.662;2023-01-28T15:04:49;2.00;99.90
11894;DHT22;6006;49.696;8.662;2023-01-28T15:07:19;1.90;1.00
11894;DHT22;6006;49.696;8.662;2023-01-28T15:09:46;1.90;1.00
11894;DHT22;6006;49.696;8.662;2023-01-28T15:12:14;1.90;1.00
11894;DHT22;6006;49.696;8.662;2023-01-28T15:14:43;1.90;1.00
11894;DHT22;6006;49.696;8.662;2023-01-28T15:17:20;1.90;1.00
11894;DHT22;6006;49.696;8.662;2023-01-28T15:19:49;1.90;1.00
11894;DHT22;6006;49.696;8.662;2023-01-28T15:22:20;1.90;1.00
11894;DHT22;6006;49.696;8.662;2023-01-28T15:24:49;1.90;1.00
11894;DHT22;6006;49.696;8.662;2023-01-28T15:27:17;1.80;1.00
11894;DHT22;6006;49.696;8.662;2023-01-28T15:29:52;1.80;1.00
11894;DHT22;6006;49.696;8.662;2023-01-28T15:32:24;1.80;99.90
11894;DHT22;6006;49.696;8.662;2023-01-28T15:34:51;1.80;99.90
11894;DHT22;6006;49.696;8.662;2023-01-28T15:37:18;1.70;99.90
11894;DHT22;6006;49.696;8.662;2023-01-28T15:39:45;1.70;99.90
11894;DHT22;6006;49.696;8.662;2023-01-28T15:42:20;1.70;99.90
11894;DHT22;6006;49.696;8.662;2023-01-28T15:44:51;1.60;99.90
11894;DHT22;6006;49.696;8.662;2023-01-28T15:47:22;1.60;99.90
11894;DHT22;6006;49.696;8.662;2023-01-28T15:49:52;1.50;99.90
11894;DHT22;6006;49.696;8.662;2023-01-28T15:52:20;1.60;99.90
11894;DHT22;6006;49.696;8.662;2023-01-28T15:54:50;1.60;99.90
11894;DHT22;6006;49.696;8.662;2023-01-28T15:57:19;1.50;99.90
11894;DHT22;6006;49.696;8.662;2023-01-28T15:59:46;1.50;99.90
11894;DHT22;6006;49.696;8.662;2023-01-28T16:02:22;1.50;99.90
11894;DHT22;6006;49.696;8.662;2023-01-28T16:04:56;1.50;99.90
11894;DHT22;6006;49.696;8.662;2023-01-28T16:07:23;1.50;99.90
11894;DHT22;6006;49.696;8.662;2023-01-28T16:09:52;1.40;99.90
11894;DHT22;6006;49.696;8.662;2023-01-28T16:12:19;1.50;99.90
11894;DHT22;6006;49.696;8.662;2023-01-28T16:14:49;1.50;1.00
11894;DHT22;6006;49.696;8.662;2023-01-28T16:17:19;1.50;99.90
11894;DHT22;6006;49.696;8.662;2023-01-28T16:19:50;1.40;99.90
11894;DHT22;6006;49.696;8.662;2023-01-28T16:22:19;1.40;99.90
11894;DHT22;6006;49.696;8.662;2023-01-28T16:24:51;1.40;99.90
11894;DHT22;6006;49.696;8.662;2023-01-28T16:27:20;1.30;99.90
11894;DHT22;6006;49.696;8.662;2023-01-28T16:29:48;1.30;99.90
11894;DHT22;6006;49.696;8.662;2023-01-28T16:32:28;1.30;99.90
11894;DHT22;6006;49.696;8.662;2023-01-28T16:34:57;1.20;99.90
11894;DHT22;6006;49.696;8.662;2023-01-28T16:37:24;1.20;99.90
11894;DHT22;6006;49.696;8.662;2023-01-28T16:39:51;1.20;99.90